Seabrook, TX (77586)

7:10 PM CST on February 27, 2017 (GMT -0600)
Glencove Drive | | Change Station

Elev 26 ft 29.56 °N, 95.03 °W | Updated 2 minutes ago

Overcast
Overcast
72.9 °F
Feels Like 72.9 °F
N
2.5
Wind Variable Wind from SSW
Gusts 5.6 mph

Today
High -- | Low -- °F
--% Chance of Precip.
Yesterday
High -- | Low -- °F
Precip. -- in
Pressure 29.97 in
Visibility 10.0 miles
Clouds Few 1800 ft
Mostly Cloudy 25000 ft
Dew Point 71 °F
Humidity 93%
Rainfall 0.00 in
Snow Depth Not available.
6:47 AM 6:18 PM
New Moon, 3% visible
METAR KEFD 280050Z 13012KT 10SM FEW018 BKN250 23/21 A2997
Pressure 29.97 in
Visibility 10.0 miles
Clouds Few 1800 ft
Mostly Cloudy 25000 ft
Dew Point 71 °F
Humidity 93%
Rainfall 0.00 in
Snow Depth Not available.
6:47 AM 6:18 PM
New Moon, 3% visible
METAR KEFD 280050Z 13012KT 10SM FEW018 BKN250 23/21 A2997

Get Your Daily Forecast Email!

Thanks for signing up!

Be on the lookout for a verification email in your inbox.

You'll start receiving the daily forecast at 8 AM.

×

10-Day Weather Forecast

Almanac

Astronomy

Feb. 27, 2017 Rise Set
Actual Time
Civil Twilight
Nautical Twilight
Astronomical Twilight
Moon
Length of Visible Light
Length of Day
Tomorrow will be .
, % of the Moon is Illuminated

Today's Extremes

State Highs State Lows

Community

WunderPhotos

Upload Photos

1,962,540 photos uploaded!

WunderBlog® & News

Nearby

Air Quality

  Air Quality AQ Index Pollutant
Not available.

Snow Depth

Station Depth Elevation

Earthquake Activity

City Distance Mag. Time & Date
Minimum magnitude displayed is 2.5.

Coastal Water Temperatures

Place Temperature

Stations

Nearby Weather Stations

Station Location Temp. Windchill Dew Point Humidity Wind Precip. Elev Updated Type
                   

Watches & Warnings

There are currently no watches in effect.